createdAt,value
2019-05-14T00:00:14.376Z,62.11
2019-05-14T00:04:38.509Z,62.64
2019-05-14T00:09:02.455Z,62.64
2019-05-14T00:13:26.709Z,62.74
2019-05-14T00:17:52.440Z,62.94
2019-05-14T00:22:17.662Z,63.28
2019-05-14T00:26:42.673Z,63.34
2019-05-14T00:31:07.138Z,63.74
2019-05-14T00:35:32.477Z,63.74
2019-05-14T00:39:56.629Z,63.87
2019-05-14T00:44:21.382Z,64.30
2019-05-14T00:48:43.305Z,64.40
2019-05-14T00:53:07.414Z,64.46
2019-05-14T00:57:31.692Z,64.57
2019-05-14T01:01:55.546Z,64.57
2019-05-14T01:06:21.731Z,64.75
2019-05-14T01:10:44.955Z,65.00
2019-05-14T01:15:13.383Z,64.65
2019-05-14T01:19:36.078Z,64.65
2019-05-14T01:24:01.864Z,65.13
2019-05-14T01:28:25.376Z,65.58
2019-05-14T01:32:51.129Z,65.58
2019-05-14T01:37:15.094Z,66.10
2019-05-14T01:41:38.906Z,66.01
2019-05-14T01:46:03.109Z,66.08
2019-05-14T01:50:27.216Z,66.36
2019-05-14T01:54:51.501Z,66.60
2019-05-14T01:59:15.701Z,66.95
2019-05-14T02:03:41.088Z,67.53
2019-05-14T02:08:06.046Z,67.91
2019-05-14T02:12:31.532Z,68.05
2019-05-14T02:16:54.182Z,68.21
2019-05-14T02:21:16.802Z,68.79
2019-05-14T02:25:41.310Z,69.20
2019-05-14T02:30:06.446Z,69.90
2019-05-14T02:34:30.570Z,70.72
2019-05-14T02:38:55.648Z,70.88
2019-05-14T02:43:20.264Z,70.61
2019-05-14T02:47:44.387Z,70.29
2019-05-14T02:52:09.895Z,70.68
2019-05-14T02:56:34.411Z,71.27
2019-05-14T03:01:00.375Z,71.38
2019-05-14T03:05:23.993Z,71.29
2019-05-14T03:09:50.173Z,70.97
2019-05-14T03:14:12.810Z,70.90
2019-05-14T03:18:35.876Z,70.90
2019-05-14T03:23:07.986Z,71.23
2019-05-14T03:27:23.829Z,71.12
2019-05-14T03:31:52.314Z,71.21
2019-05-14T03:36:17.644Z,71.41
2019-05-14T03:40:39.990Z,71.47
2019-05-14T03:45:08.584Z,71.93
2019-05-14T03:49:32.738Z,72.51
2019-05-14T03:54:05.625Z,72.48
2019-05-14T03:58:23.225Z,72.54
2019-05-14T04:02:49.013Z,72.42
2019-05-14T04:07:14.282Z,72.29
2019-05-14T04:11:40.337Z,72.68
2019-05-14T04:16:05.298Z,73.01
2019-05-14T04:20:32.163Z,73.01
2019-05-14T04:24:59.713Z,73.03
2019-05-14T04:29:30.322Z,73.38
2019-05-14T04:33:51.392Z,73.44
2019-05-14T04:38:14.741Z,73.33
2019-05-14T04:42:40.142Z,73.49
2019-05-14T04:47:20.209Z,74.25
2019-05-14T04:51:25.430Z,74.19
2019-05-14T04:55:49.454Z,74.50
2019-05-14T05:00:12.916Z,74.25
2019-05-14T05:04:35.691Z,74.43
2019-05-14T05:09:00.082Z,74.92
2019-05-14T05:13:22.925Z,74.79
2019-05-14T05:17:52.506Z,75.39
2019-05-14T05:22:12.789Z,75.63
2019-05-14T05:26:39.035Z,75.47
2019-05-14T05:31:02.760Z,75.69
2019-05-14T05:35:29.034Z,75.27
2019-05-14T05:39:52.213Z,75.48
2019-05-14T05:44:16.020Z,75.62
2019-05-14T05:48:40.139Z,75.38
2019-05-14T05:53:05.506Z,75.10
2019-05-14T05:57:30.635Z,74.89
2019-05-14T06:01:55.043Z,74.56
2019-05-14T06:06:19.432Z,73.93
2019-05-14T06:10:43.440Z,73.12
2019-05-14T06:15:08.704Z,72.12
2019-05-14T06:19:33.140Z,70.20
2019-05-14T06:45:44.171Z,62.18
2019-05-14T06:50:09.739Z,61.10
2019-05-14T06:54:33.834Z,59.16
2019-05-14T07:25:18.420Z,50.71
2019-05-14T07:29:42.570Z,49.78
2019-05-14T07:34:08.725Z,49.60
2019-05-14T07:38:39.241Z,48.00
2019-05-14T07:43:09.253Z,48.00
2019-05-14T07:47:33.481Z,47.01
2019-05-14T07:51:58.714Z,45.42
2019-05-14T07:56:22.863Z,45.03
2019-05-14T08:00:48.984Z,43.43
2019-05-14T08:05:12.977Z,42.51
2019-05-14T08:09:35.915Z,41.83
2019-05-14T09:02:05.445Z,34.96
2019-05-14T09:06:21.244Z,34.83
2019-05-14T09:23:49.424Z,35.49
2019-05-14T09:28:12.849Z,35.63
2019-05-14T09:36:59.364Z,35.06
2019-05-14T09:41:27.513Z,34.97
2019-05-14T09:45:50.108Z,34.56
2019-05-14T09:50:29.017Z,34.85
2019-05-14T09:54:54.596Z,33.94
2019-05-14T09:59:23.934Z,33.14
2019-05-14T10:03:49.623Z,34.32
2019-05-14T10:08:13.549Z,33.25
2019-05-14T10:12:44.703Z,33.59
2019-05-14T10:17:02.875Z,32.55
2019-05-14T10:21:29.209Z,32.40
2019-05-14T10:25:52.805Z,32.21
2019-05-14T10:30:18.237Z,32.16
2019-05-14T10:34:42.181Z,30.87
2019-05-14T10:39:09.405Z,30.62
2019-05-14T10:43:33.410Z,30.58
2019-05-14T10:47:58.603Z,30.54
2019-05-14T10:52:23.091Z,30.71
2019-05-14T10:56:49.503Z,30.47
2019-05-14T11:01:12.471Z,29.28
2019-05-14T11:05:41.264Z,28.82
2019-05-14T11:10:02.715Z,28.76
2019-05-14T11:14:31.325Z,28.47
2019-05-14T11:18:52.416Z,28.00
2019-05-14T11:23:18.457Z,28.07
2019-05-14T11:27:42.232Z,27.42
2019-05-14T11:32:09.350Z,26.93
2019-05-14T11:36:31.909Z,27.97
2019-05-14T11:40:58.576Z,27.45
2019-05-14T11:45:23.635Z,28.29
2019-05-14T11:49:49.198Z,28.17
2019-05-14T11:54:13.526Z,28.17
2019-05-14T11:58:37.610Z,28.50
2019-05-14T12:03:01.702Z,28.25
2019-05-14T12:07:27.948Z,27.76
2019-05-14T12:11:51.298Z,27.45
2019-05-14T12:16:15.457Z,28.04
2019-05-14T12:20:39.884Z,28.12
2019-05-14T12:25:04.193Z,28.02
2019-05-14T12:29:29.194Z,28.32
2019-05-14T12:33:53.446Z,27.60
2019-05-14T12:38:18.723Z,27.38
2019-05-14T12:42:43.665Z,27.55
2019-05-14T12:47:09.483Z,27.29
2019-05-14T12:51:33.514Z,25.92
2019-05-14T12:55:57.821Z,26.27
2019-05-14T13:00:22.294Z,26.62
2019-05-14T13:04:48.639Z,26.59
2019-05-14T13:09:12.866Z,27.61
2019-05-14T13:13:42.413Z,27.61
2019-05-14T13:18:03.375Z,27.08
2019-05-14T13:22:39.269Z,26.11
2019-05-14T13:26:53.086Z,25.44
2019-05-14T13:31:18.328Z,25.96
2019-05-14T13:35:42.642Z,26.15
2019-05-14T13:40:09.279Z,26.07
2019-05-14T13:44:33.769Z,26.70
2019-05-14T13:48:59.152Z,25.73
2019-05-14T13:53:23.569Z,25.73
2019-05-14T13:57:48.665Z,25.73
2019-05-14T14:02:13.518Z,26.47
2019-05-14T14:06:39.357Z,26.57
2019-05-14T14:11:04.362Z,26.44
2019-05-14T14:15:28.905Z,25.91
2019-05-14T14:19:53.319Z,25.59
2019-05-14T14:24:19.691Z,26.33
2019-05-14T14:28:42.994Z,26.28
2019-05-14T14:33:07.140Z,25.93
2019-05-14T14:37:31.297Z,25.49
2019-05-14T14:41:55.369Z,25.21
2019-05-14T14:46:19.999Z,25.80
2019-05-14T14:50:44.190Z,25.99
2019-05-14T14:55:08.829Z,26.23
2019-05-14T14:59:32.625Z,26.55
2019-05-14T15:03:56.430Z,25.83
2019-05-14T15:08:20.854Z,26.00
2019-05-14T15:12:45.941Z,26.23
2019-05-14T15:17:10.025Z,25.87
2019-05-14T15:21:33.937Z,26.06
2019-05-14T15:25:58.918Z,26.34
2019-05-14T15:30:23.314Z,27.01
2019-05-14T15:34:50.270Z,27.48
2019-05-14T15:39:12.696Z,26.65
2019-05-14T15:43:50.201Z,26.67
2019-05-14T15:48:14.478Z,26.85
2019-05-14T15:52:39.794Z,26.26
2019-05-14T15:57:03.910Z,26.76
2019-05-14T16:01:28.610Z,26.94
2019-05-14T16:05:53.446Z,26.36
2019-05-14T16:10:21.751Z,27.33
2019-05-14T16:14:43.982Z,27.73
2019-05-14T16:19:29.020Z,27.49
2019-05-14T16:24:08.275Z,27.51
2019-05-14T16:28:39.124Z,27.44
2019-05-14T16:33:09.132Z,27.57
2019-05-14T16:37:32.230Z,27.41
2019-05-14T16:41:58.301Z,27.77
2019-05-14T16:46:23.391Z,27.93
2019-05-14T16:50:48.962Z,27.70
2019-05-14T16:55:23.299Z,28.06
2019-05-14T16:59:40.659Z,28.72
2019-05-14T17:04:09.024Z,28.72
2019-05-14T17:08:44.504Z,28.29
2019-05-14T17:13:09.161Z,28.52
2019-05-14T17:17:34.651Z,28.79
2019-05-14T17:21:59.511Z,29.12
2019-05-14T17:26:28.783Z,29.27
2019-05-14T17:30:52.944Z,29.27
2019-05-14T17:35:19.549Z,29.50
2019-05-14T17:39:43.804Z,29.81
2019-05-14T17:44:09.043Z,29.99
2019-05-14T17:48:35.280Z,30.38
2019-05-14T17:53:00.255Z,30.11
2019-05-14T17:57:25.947Z,30.97
2019-05-14T18:01:50.088Z,30.74
2019-05-14T18:06:15.402Z,30.75
2019-05-14T18:10:39.616Z,31.47
2019-05-14T18:15:03.612Z,31.30
2019-05-14T18:19:28.997Z,31.88
2019-05-14T18:23:54.005Z,31.15
2019-05-14T18:28:18.072Z,31.15
2019-05-14T18:32:43.398Z,32.12
2019-05-14T18:37:13.379Z,32.31
2019-05-14T18:41:33.560Z,32.46
2019-05-14T18:45:58.732Z,32.46
2019-05-14T18:50:22.879Z,32.92
2019-05-14T18:54:48.340Z,33.34
2019-05-14T18:59:13.385Z,33.59
2019-05-14T19:03:39.703Z,34.87
2019-05-14T19:08:06.116Z,34.87
2019-05-14T19:12:29.994Z,34.87
2019-05-14T19:16:53.821Z,35.17
2019-05-14T19:21:17.763Z,35.67
2019-05-14T19:25:42.263Z,35.98
2019-05-14T19:30:08.450Z,36.40
2019-05-14T19:34:32.760Z,36.80
2019-05-14T19:38:58.412Z,37.34
2019-05-14T19:43:22.722Z,37.42
2019-05-14T19:47:49.117Z,37.84
2019-05-14T19:52:12.955Z,38.24
2019-05-14T19:56:51.852Z,38.42
2019-05-14T20:01:02.586Z,39.04
2019-05-14T20:05:28.706Z,39.18
2019-05-14T20:09:52.490Z,39.18
2019-05-14T20:14:16.373Z,39.85
2019-05-14T20:18:40.364Z,40.20
2019-05-14T20:23:05.670Z,40.47
2019-05-14T20:27:29.892Z,40.78
2019-05-14T20:31:54.056Z,41.11
2019-05-14T20:36:18.779Z,41.44
2019-05-14T20:40:42.785Z,41.63
2019-05-14T20:45:08.254Z,41.83
2019-05-14T20:49:32.060Z,41.90
2019-05-14T20:53:58.073Z,42.03
2019-05-14T20:58:22.612Z,42.31
2019-05-14T21:02:46.558Z,42.77
2019-05-14T21:07:10.871Z,43.01
2019-05-14T21:11:34.925Z,43.87
2019-05-14T21:15:58.845Z,43.87
2019-05-14T21:20:22.990Z,44.16
2019-05-14T21:24:49.737Z,44.35
2019-05-14T21:29:12.940Z,44.64
2019-05-14T21:33:38.899Z,45.05
2019-05-14T21:38:02.864Z,45.47
2019-05-14T21:42:28.547Z,46.00
2019-05-14T21:46:52.789Z,46.59
2019-05-14T21:51:18.028Z,47.29
2019-05-14T21:55:43.385Z,48.03
2019-05-14T22:00:12.899Z,48.58
2019-05-14T22:04:38.675Z,49.77
2019-05-14T22:09:02.675Z,49.77
2019-05-14T22:13:28.482Z,50.40
2019-05-14T22:17:52.912Z,50.91
2019-05-14T22:22:18.664Z,51.51
2019-05-14T22:26:43.877Z,52.17
2019-05-14T22:31:09.104Z,52.95
2019-05-14T22:35:33.473Z,53.40
2019-05-14T22:39:59.957Z,54.60
2019-05-14T22:44:23.864Z,54.60
2019-05-14T22:48:51.339Z,54.69
2019-05-14T22:53:13.809Z,54.92
2019-05-14T22:57:39.253Z,55.41
2019-05-14T23:02:03.873Z,56.08
2019-05-14T23:06:28.209Z,56.08
2019-05-14T23:10:52.541Z,56.39
2019-05-14T23:15:18.182Z,56.67
2019-05-14T23:19:43.538Z,56.95
2019-05-14T23:24:09.217Z,57.13
2019-05-14T23:28:42.594Z,57.59
2019-05-14T23:33:00.523Z,57.78
2019-05-14T23:37:25.552Z,58.11
2019-05-14T23:41:50.407Z,58.88
2019-05-14T23:46:18.211Z,58.88
2019-05-14T23:50:41.519Z,58.77
2019-05-14T23:55:08.331Z,58.99
2019-05-14T23:59:31.780Z,59.22
